sensor_id;sensor_type;location;lat;lon;timestamp;pressure;altitude;pressure_sealevel;temperature
11849;BMP180;5983;49.966;8.052;2023-07-24T00:00:30;99764.00;;;20.20
11849;BMP180;5983;49.966;8.052;2023-07-24T00:02:56;99764.00;;;20.30
11849;BMP180;5983;49.966;8.052;2023-07-24T00:05:23;99761.00;;;20.30
11849;BMP180;5983;49.966;8.052;2023-07-24T00:07:50;99757.00;;;20.30
11849;BMP180;5983;49.966;8.052;2023-07-24T00:10:18;99754.00;;;20.20
11849;BMP180;5983;49.966;8.052;2023-07-24T00:12:45;99760.00;;;20.20
11849;BMP180;5983;49.966;8.052;2023-07-24T00:15:12;99762.00;;;20.20
11849;BMP180;5983;49.966;8.052;2023-07-24T00:17:38;99758.00;;;20.20
11849;BMP180;5983;49.966;8.052;2023-07-24T00:20:06;99758.00;;;20.20
11849;BMP180;5983;49.966;8.052;2023-07-24T00:22:33;99753.00;;;20.20
11849;BMP180;5983;49.966;8.052;2023-07-24T00:25:00;99752.00;;;20.10
11849;BMP180;5983;49.966;8.052;2023-07-24T00:27:28;99754.00;;;20.10
11849;BMP180;5983;49.966;8.052;2023-07-24T00:29:55;99752.00;;;20.10
11849;BMP180;5983;49.966;8.052;2023-07-24T00:32:21;99751.00;;;20.10
11849;BMP180;5983;49.966;8.052;2023-07-24T00:34:48;99744.00;;;20.10
11849;BMP180;5983;49.966;8.052;2023-07-24T00:37:15;99731.00;;;20.10
11849;BMP180;5983;49.966;8.052;2023-07-24T00:39:42;99728.00;;;20.10
11849;BMP180;5983;49.966;8.052;2023-07-24T00:42:08;99749.00;;;20.10
11849;BMP180;5983;49.966;8.052;2023-07-24T00:44:37;99739.00;;;20.00
11849;BMP180;5983;49.966;8.052;2023-07-24T00:47:04;99737.00;;;20.00
11849;BMP180;5983;49.966;8.052;2023-07-24T00:49:31;99735.00;;;20.00
11849;BMP180;5983;49.966;8.052;2023-07-24T00:51:58;99732.00;;;19.90
11849;BMP180;5983;49.966;8.052;2023-07-24T00:54:27;99738.00;;;19.90
11849;BMP180;5983;49.966;8.052;2023-07-24T00:56:57;99740.00;;;19.90
11849;BMP180;5983;49.966;8.052;2023-07-24T00:59:24;99736.00;;;19.80
11849;BMP180;5983;49.966;8.052;2023-07-24T01:01:52;99734.00;;;19.80
11849;BMP180;5983;49.966;8.052;2023-07-24T01:04:19;99732.00;;;19.80
11849;BMP180;5983;49.966;8.052;2023-07-24T01:06:46;99726.00;;;19.80
11849;BMP180;5983;49.966;8.052;2023-07-24T01:09:13;99713.00;;;19.80
11849;BMP180;5983;49.966;8.052;2023-07-24T01:11:43;99722.00;;;19.80
11849;BMP180;5983;49.966;8.052;2023-07-24T01:14:13;99709.00;;;19.80
11849;BMP180;5983;49.966;8.052;2023-07-24T01:16:46;99702.00;;;19.80
11849;BMP180;5983;49.966;8.052;2023-07-24T01:19:20;99700.00;;;19.80
11849;BMP180;5983;49.966;8.052;2023-07-24T01:22:01;99694.00;;;19.80
11849;BMP180;5983;49.966;8.052;2023-07-24T01:24:31;99689.00;;;19.80
11849;BMP180;5983;49.966;8.052;2023-07-24T01:27:01;99688.00;;;19.70
11849;BMP180;5983;49.966;8.052;2023-07-24T01:29:28;99695.00;;;19.70
11849;BMP180;5983;49.966;8.052;2023-07-24T01:31:54;99695.00;;;19.70
11849;BMP180;5983;49.966;8.052;2023-07-24T01:34:21;99704.00;;;19.70
11849;BMP180;5983;49.966;8.052;2023-07-24T01:36:49;99699.00;;;19.60
11849;BMP180;5983;49.966;8.052;2023-07-24T01:39:17;99685.00;;;19.60
11849;BMP180;5983;49.966;8.052;2023-07-24T01:41:45;99678.00;;;19.60
11849;BMP180;5983;49.966;8.052;2023-07-24T01:44:13;99676.00;;;19.60
11849;BMP180;5983;49.966;8.052;2023-07-24T01:46:39;99670.00;;;19.50
11849;BMP180;5983;49.966;8.052;2023-07-24T01:49:06;99662.00;;;19.60
11849;BMP180;5983;49.966;8.052;2023-07-24T01:51:33;99662.00;;;19.60
11849;BMP180;5983;49.966;8.052;2023-07-24T01:53:59;99648.00;;;19.50
11849;BMP180;5983;49.966;8.052;2023-07-24T01:56:27;99633.00;;;19.50
11849;BMP180;5983;49.966;8.052;2023-07-24T01:58:53;99638.00;;;19.50
11849;BMP180;5983;49.966;8.052;2023-07-24T02:01:21;99645.00;;;19.40
11849;BMP180;5983;49.966;8.052;2023-07-24T02:03:48;99640.00;;;19.40
11849;BMP180;5983;49.966;8.052;2023-07-24T02:06:15;99637.00;;;19.30
11849;BMP180;5983;49.966;8.052;2023-07-24T02:08:41;99641.00;;;19.30
11849;BMP180;5983;49.966;8.052;2023-07-24T02:11:14;99636.00;;;19.30
11849;BMP180;5983;49.966;8.052;2023-07-24T02:13:42;99635.00;;;19.30
11849;BMP180;5983;49.966;8.052;2023-07-24T02:16:09;99644.00;;;19.20
11849;BMP180;5983;49.966;8.052;2023-07-24T02:18:37;99644.00;;;19.20
11849;BMP180;5983;49.966;8.052;2023-07-24T02:21:04;99655.00;;;19.20
11849;BMP180;5983;49.966;8.052;2023-07-24T02:23:31;99651.00;;;19.10
11849;BMP180;5983;49.966;8.052;2023-07-24T02:25:58;99644.00;;;19.00
11849;BMP180;5983;49.966;8.052;2023-07-24T02:28:24;99647.00;;;19.00
11849;BMP180;5983;49.966;8.052;2023-07-24T02:30:51;99652.00;;;19.00
11849;BMP180;5983;49.966;8.052;2023-07-24T02:33:21;99656.00;;;19.00
11849;BMP180;5983;49.966;8.052;2023-07-24T02:35:51;99665.00;;;19.00
11849;BMP180;5983;49.966;8.052;2023-07-24T02:38:18;99662.00;;;18.90
11849;BMP180;5983;49.966;8.052;2023-07-24T02:40:45;99661.00;;;18.80
11849;BMP180;5983;49.966;8.052;2023-07-24T02:43:12;99666.00;;;18.80
11849;BMP180;5983;49.966;8.052;2023-07-24T02:45:39;99665.00;;;18.80
11849;BMP180;5983;49.966;8.052;2023-07-24T02:48:06;99667.00;;;18.80
11849;BMP180;5983;49.966;8.052;2023-07-24T02:50:33;99659.00;;;18.80
11849;BMP180;5983;49.966;8.052;2023-07-24T02:53:01;99653.00;;;18.80
11849;BMP180;5983;49.966;8.052;2023-07-24T02:55:28;99653.00;;;18.80
11849;BMP180;5983;49.966;8.052;2023-07-24T02:57:55;99640.00;;;18.70
11849;BMP180;5983;49.966;8.052;2023-07-24T03:00:22;99627.00;;;18.70
11849;BMP180;5983;49.966;8.052;2023-07-24T03:02:48;99630.00;;;18.80
11849;BMP180;5983;49.966;8.052;2023-07-24T03:05:15;99625.00;;;18.70
11849;BMP180;5983;49.966;8.052;2023-07-24T03:07:42;99640.00;;;18.70
11849;BMP180;5983;49.966;8.052;2023-07-24T03:10:10;99639.00;;;18.70
11849;BMP180;5983;49.966;8.052;2023-07-24T03:12:37;99634.00;;;18.70
11849;BMP180;5983;49.966;8.052;2023-07-24T03:15:04;99616.00;;;18.60
11849;BMP180;5983;49.966;8.052;2023-07-24T03:17:31;99622.00;;;18.60
11849;BMP180;5983;49.966;8.052;2023-07-24T03:19:59;99605.00;;;18.60
11849;BMP180;5983;49.966;8.052;2023-07-24T03:22:25;99589.00;;;18.60
11849;BMP180;5983;49.966;8.052;2023-07-24T03:24:52;99588.00;;;18.50
11849;BMP180;5983;49.966;8.052;2023-07-24T03:27:20;99586.00;;;18.50
11849;BMP180;5983;49.966;8.052;2023-07-24T03:29:47;99584.00;;;18.40
11849;BMP180;5983;49.966;8.052;2023-07-24T03:32:13;99579.00;;;18.40
11849;BMP180;5983;49.966;8.052;2023-07-24T03:34:40;99574.00;;;18.40
11849;BMP180;5983;49.966;8.052;2023-07-24T03:37:07;99552.00;;;18.30
11849;BMP180;5983;49.966;8.052;2023-07-24T03:39:34;99529.00;;;18.40
11849;BMP180;5983;49.966;8.052;2023-07-24T03:42:02;99521.00;;;18.40
11849;BMP180;5983;49.966;8.052;2023-07-24T03:44:30;99538.00;;;18.30
11849;BMP180;5983;49.966;8.052;2023-07-24T03:46:57;99540.00;;;18.30
11849;BMP180;5983;49.966;8.052;2023-07-24T03:49:23;99552.00;;;18.30
11849;BMP180;5983;49.966;8.052;2023-07-24T03:51:50;99546.00;;;18.20
11849;BMP180;5983;49.966;8.052;2023-07-24T03:54:17;99556.00;;;18.20
11849;BMP180;5983;49.966;8.052;2023-07-24T03:56:43;99553.00;;;18.20
11849;BMP180;5983;49.966;8.052;2023-07-24T03:59:10;99561.00;;;18.20
11849;BMP180;5983;49.966;8.052;2023-07-24T04:01:38;99543.00;;;18.20
11849;BMP180;5983;49.966;8.052;2023-07-24T04:04:05;99536.00;;;18.30
11849;BMP180;5983;49.966;8.052;2023-07-24T04:06:32;99539.00;;;18.30
11849;BMP180;5983;49.966;8.052;2023-07-24T04:08:59;99550.00;;;18.20
11849;BMP180;5983;49.966;8.052;2023-07-24T04:11:25;99560.00;;;18.30
11849;BMP180;5983;49.966;8.052;2023-07-24T04:13:52;99555.00;;;18.30
11849;BMP180;5983;49.966;8.052;2023-07-24T04:16:19;99535.00;;;18.30
11849;BMP180;5983;49.966;8.052;2023-07-24T04:18:47;99549.00;;;18.30
11849;BMP180;5983;49.966;8.052;2023-07-24T04:21:14;99560.00;;;18.30
11849;BMP180;5983;49.966;8.052;2023-07-24T04:23:40;99560.00;;;18.30
11849;BMP180;5983;49.966;8.052;2023-07-24T04:26:07;99565.00;;;18.30
11849;BMP180;5983;49.966;8.052;2023-07-24T04:28:34;99574.00;;;18.30
11849;BMP180;5983;49.966;8.052;2023-07-24T04:31:00;99582.00;;;18.30
11849;BMP180;5983;49.966;8.052;2023-07-24T04:33:27;99586.00;;;18.30
11849;BMP180;5983;49.966;8.052;2023-07-24T04:35:55;99596.00;;;18.40
11849;BMP180;5983;49.966;8.052;2023-07-24T04:38:22;99601.00;;;18.40
11849;BMP180;5983;49.966;8.052;2023-07-24T04:40:49;99604.00;;;18.50
11849;BMP180;5983;49.966;8.052;2023-07-24T04:43:16;99594.00;;;18.50
11849;BMP180;5983;49.966;8.052;2023-07-24T04:45:43;99591.00;;;18.60
11849;BMP180;5983;49.966;8.052;2023-07-24T04:48:09;99592.00;;;18.60
11849;BMP180;5983;49.966;8.052;2023-07-24T04:50:36;99588.00;;;18.70
11849;BMP180;5983;49.966;8.052;2023-07-24T04:53:04;99593.00;;;18.70
11849;BMP180;5983;49.966;8.052;2023-07-24T04:55:31;99598.00;;;18.70
11849;BMP180;5983;49.966;8.052;2023-07-24T04:57:58;99610.00;;;18.70
11849;BMP180;5983;49.966;8.052;2023-07-24T05:00:24;99604.00;;;18.70
11849;BMP180;5983;49.966;8.052;2023-07-24T05:05:27;99621.00;;;18.70
11849;BMP180;5983;49.966;8.052;2023-07-24T05:07:54;99617.00;;;18.80
11849;BMP180;5983;49.966;8.052;2023-07-24T05:10:22;99612.00;;;18.80
11849;BMP180;5983;49.966;8.052;2023-07-24T05:12:48;99610.00;;;18.80
11849;BMP180;5983;49.966;8.052;2023-07-24T05:15:15;99586.00;;;18.80
11849;BMP180;5983;49.966;8.052;2023-07-24T05:17:43;99585.00;;;18.90
11849;BMP180;5983;49.966;8.052;2023-07-24T05:20:10;99576.00;;;19.00
11849;BMP180;5983;49.966;8.052;2023-07-24T05:22:37;99586.00;;;19.00
11849;BMP180;5983;49.966;8.052;2023-07-24T05:25:05;99599.00;;;19.00
11849;BMP180;5983;49.966;8.052;2023-07-24T05:27:33;99598.00;;;19.00
11849;BMP180;5983;49.966;8.052;2023-07-24T05:30:01;99607.00;;;19.10
11849;BMP180;5983;49.966;8.052;2023-07-24T05:32:27;99596.00;;;19.10
11849;BMP180;5983;49.966;8.052;2023-07-24T05:34:54;99582.00;;;19.10
11849;BMP180;5983;49.966;8.052;2023-07-24T05:37:21;99584.00;;;19.10
11849;BMP180;5983;49.966;8.052;2023-07-24T05:39:48;99581.00;;;19.10
11849;BMP180;5983;49.966;8.052;2023-07-24T05:42:14;99576.00;;;19.20
11849;BMP180;5983;49.966;8.052;2023-07-24T05:44:42;99571.00;;;19.20
11849;BMP180;5983;49.966;8.052;2023-07-24T05:47:09;99573.00;;;19.20
11849;BMP180;5983;49.966;8.052;2023-07-24T05:49:36;99574.00;;;19.20
11849;BMP180;5983;49.966;8.052;2023-07-24T05:52:03;99569.00;;;19.30
11849;BMP180;5983;49.966;8.052;2023-07-24T05:54:30;99571.00;;;19.30
11849;BMP180;5983;49.966;8.052;2023-07-24T05:56:57;99575.00;;;19.30
11849;BMP180;5983;49.966;8.052;2023-07-24T05:59:24;99568.00;;;19.40
11849;BMP180;5983;49.966;8.052;2023-07-24T06:01:52;99571.00;;;19.40
11849;BMP180;5983;49.966;8.052;2023-07-24T06:04:19;99569.00;;;19.50
11849;BMP180;5983;49.966;8.052;2023-07-24T06:06:46;99571.00;;;19.60
11849;BMP180;5983;49.966;8.052;2023-07-24T06:09:13;99562.00;;;19.60
11849;BMP180;5983;49.966;8.052;2023-07-24T06:11:39;99565.00;;;19.70
11849;BMP180;5983;49.966;8.052;2023-07-24T06:14:06;99568.00;;;19.80
11849;BMP180;5983;49.966;8.052;2023-07-24T06:16:33;99566.00;;;19.90
11849;BMP180;5983;49.966;8.052;2023-07-24T06:19:01;99556.00;;;20.00
11849;BMP180;5983;49.966;8.052;2023-07-24T06:21:28;99564.00;;;20.10
11849;BMP180;5983;49.966;8.052;2023-07-24T06:23:54;99562.00;;;20.20
11849;BMP180;5983;49.966;8.052;2023-07-24T06:26:22;99574.00;;;20.30
11849;BMP180;5983;49.966;8.052;2023-07-24T06:28:48;99567.00;;;20.50
11849;BMP180;5983;49.966;8.052;2023-07-24T06:31:15;99568.00;;;20.60
11849;BMP180;5983;49.966;8.052;2023-07-24T06:33:41;99566.00;;;20.70
11849;BMP180;5983;49.966;8.052;2023-07-24T06:36:10;99566.00;;;20.80
11849;BMP180;5983;49.966;8.052;2023-07-24T06:38:38;99575.00;;;20.90
11849;BMP180;5983;49.966;8.052;2023-07-24T06:41:04;99569.00;;;21.00
11849;BMP180;5983;49.966;8.052;2023-07-24T06:43:32;99561.00;;;21.10
11849;BMP180;5983;49.966;8.052;2023-07-24T06:45:58;99568.00;;;21.30
11849;BMP180;5983;49.966;8.052;2023-07-24T06:48:25;99567.00;;;21.50
11849;BMP180;5983;49.966;8.052;2023-07-24T06:50:52;99562.00;;;21.70
11849;BMP180;5983;49.966;8.052;2023-07-24T06:53:20;99576.00;;;21.90
11849;BMP180;5983;49.966;8.052;2023-07-24T06:55:47;99573.00;;;22.10
11849;BMP180;5983;49.966;8.052;2023-07-24T06:58:14;99565.00;;;22.10
11849;BMP180;5983;49.966;8.052;2023-07-24T07:00:41;99570.00;;;22.20
11849;BMP180;5983;49.966;8.052;2023-07-24T07:03:08;99565.00;;;22.30
11849;BMP180;5983;49.966;8.052;2023-07-24T07:05:35;99562.00;;;22.30
11849;BMP180;5983;49.966;8.052;2023-07-24T07:08:02;99573.00;;;22.30
11849;BMP180;5983;49.966;8.052;2023-07-24T07:10:32;99576.00;;;22.20
11849;BMP180;5983;49.966;8.052;2023-07-24T07:12:59;99581.00;;;22.20
11849;BMP180;5983;49.966;8.052;2023-07-24T07:15:26;99581.00;;;22.10
11849;BMP180;5983;49.966;8.052;2023-07-24T07:17:52;99574.00;;;22.00
11849;BMP180;5983;49.966;8.052;2023-07-24T07:20:19;99573.00;;;21.90
11849;BMP180;5983;49.966;8.052;2023-07-24T07:22:46;99573.00;;;21.80
11849;BMP180;5983;49.966;8.052;2023-07-24T07:25:13;99574.00;;;21.80
11849;BMP180;5983;49.966;8.052;2023-07-24T07:27:42;99567.00;;;21.70
11849;BMP180;5983;49.966;8.052;2023-07-24T07:30:10;99557.00;;;21.70
11849;BMP180;5983;49.966;8.052;2023-07-24T07:32:37;99553.00;;;21.60
11849;BMP180;5983;49.966;8.052;2023-07-24T07:35:05;99537.00;;;21.60
11849;BMP180;5983;49.966;8.052;2023-07-24T07:37:32;99541.00;;;21.60
11849;BMP180;5983;49.966;8.052;2023-07-24T07:39:59;99553.00;;;21.70
11849;BMP180;5983;49.966;8.052;2023-07-24T07:42:25;99554.00;;;21.60
11849;BMP180;5983;49.966;8.052;2023-07-24T07:44:54;99540.00;;;21.60
11849;BMP180;5983;49.966;8.052;2023-07-24T07:47:20;99542.00;;;21.60
11849;BMP180;5983;49.966;8.052;2023-07-24T07:49:47;99546.00;;;21.60
11849;BMP180;5983;49.966;8.052;2023-07-24T07:52:14;99547.00;;;21.70
11849;BMP180;5983;49.966;8.052;2023-07-24T07:54:46;99538.00;;;21.70
11849;BMP180;5983;49.966;8.052;2023-07-24T07:57:13;99529.00;;;21.70
11849;BMP180;5983;49.966;8.052;2023-07-24T07:59:40;99533.00;;;21.70
11849;BMP180;5983;49.966;8.052;2023-07-24T08:02:08;99528.00;;;21.80
11849;BMP180;5983;49.966;8.052;2023-07-24T08:04:35;99528.00;;;21.90
11849;BMP180;5983;49.966;8.052;2023-07-24T08:07:02;99527.00;;;22.00
11849;BMP180;5983;49.966;8.052;2023-07-24T08:09:29;99525.00;;;22.30
11849;BMP180;5983;49.966;8.052;2023-07-24T08:11:58;99523.00;;;22.40
11849;BMP180;5983;49.966;8.052;2023-07-24T08:14:25;99510.00;;;22.50
11849;BMP180;5983;49.966;8.052;2023-07-24T08:16:52;99500.00;;;22.60
11849;BMP180;5983;49.966;8.052;2023-07-24T08:19:20;99502.00;;;22.70
11849;BMP180;5983;49.966;8.052;2023-07-24T08:21:47;99511.00;;;22.80
11849;BMP180;5983;49.966;8.052;2023-07-24T08:24:14;99516.00;;;23.10
11849;BMP180;5983;49.966;8.052;2023-07-24T08:26:41;99508.00;;;23.30
11849;BMP180;5983;49.966;8.052;2023-07-24T08:29:07;99509.00;;;23.60
11849;BMP180;5983;49.966;8.052;2023-07-24T08:31:34;99514.00;;;23.80
11849;BMP180;5983;49.966;8.052;2023-07-24T08:34:01;99512.00;;;23.80
11849;BMP180;5983;49.966;8.052;2023-07-24T08:36:29;99502.00;;;23.90
11849;BMP180;5983;49.966;8.052;2023-07-24T08:38:56;99516.00;;;23.90
11849;BMP180;5983;49.966;8.052;2023-07-24T08:41:23;99515.00;;;23.90
11849;BMP180;5983;49.966;8.052;2023-07-24T08:43:50;99519.00;;;24.00
11849;BMP180;5983;49.966;8.052;2023-07-24T08:46:20;99510.00;;;24.00
11849;BMP180;5983;49.966;8.052;2023-07-24T08:48:47;99513.00;;;24.10
11849;BMP180;5983;49.966;8.052;2023-07-24T08:51:15;99507.00;;;24.00
11849;BMP180;5983;49.966;8.052;2023-07-24T08:53:46;99507.00;;;24.00
11849;BMP180;5983;49.966;8.052;2023-07-24T08:56:14;99487.00;;;24.00
11849;BMP180;5983;49.966;8.052;2023-07-24T08:58:42;99504.00;;;24.00
11849;BMP180;5983;49.966;8.052;2023-07-24T09:01:09;99496.00;;;23.90
11849;BMP180;5983;49.966;8.052;2023-07-24T09:03:36;99481.00;;;23.80
11849;BMP180;5983;49.966;8.052;2023-07-24T09:06:03;99478.00;;;23.70
11849;BMP180;5983;49.966;8.052;2023-07-24T09:08:33;99473.00;;;23.70
11849;BMP180;5983;49.966;8.052;2023-07-24T09:11:04;99470.00;;;23.70
11849;BMP180;5983;49.966;8.052;2023-07-24T09:13:32;99473.00;;;23.80
11849;BMP180;5983;49.966;8.052;2023-07-24T09:15:59;99475.00;;;23.90
11849;BMP180;5983;49.966;8.052;2023-07-24T09:18:26;99462.00;;;23.90
11849;BMP180;5983;49.966;8.052;2023-07-24T09:20:53;99462.00;;;24.00
11849;BMP180;5983;49.966;8.052;2023-07-24T09:23:27;99441.00;;;24.20
11849;BMP180;5983;49.966;8.052;2023-07-24T09:25:54;99439.00;;;24.40
11849;BMP180;5983;49.966;8.052;2023-07-24T09:28:23;99432.00;;;25.00
11849;BMP180;5983;49.966;8.052;2023-07-24T09:30:55;99430.00;;;25.30
11849;BMP180;5983;49.966;8.052;2023-07-24T09:33:23;99436.00;;;25.60
11849;BMP180;5983;49.966;8.052;2023-07-24T09:36:00;99436.00;;;25.70
11849;BMP180;5983;49.966;8.052;2023-07-24T09:38:27;99424.00;;;25.90
11849;BMP180;5983;49.966;8.052;2023-07-24T09:40:56;99420.00;;;25.90
11849;BMP180;5983;49.966;8.052;2023-07-24T09:43:27;99417.00;;;25.80
11849;BMP180;5983;49.966;8.052;2023-07-24T09:45:56;99402.00;;;25.80
11849;BMP180;5983;49.966;8.052;2023-07-24T09:48:25;99414.00;;;25.80
11849;BMP180;5983;49.966;8.052;2023-07-24T09:50:55;99409.00;;;25.80
11849;BMP180;5983;49.966;8.052;2023-07-24T09:53:33;99424.00;;;25.80
11849;BMP180;5983;49.966;8.052;2023-07-24T09:56:03;99441.00;;;25.70
11849;BMP180;5983;49.966;8.052;2023-07-24T09:58:35;99447.00;;;25.60
11849;BMP180;5983;49.966;8.052;2023-07-24T10:01:04;99449.00;;;25.60
11849;BMP180;5983;49.966;8.052;2023-07-24T10:03:33;99458.00;;;25.70
11849;BMP180;5983;49.966;8.052;2023-07-24T10:06:01;99447.00;;;25.70
11849;BMP180;5983;49.966;8.052;2023-07-24T10:08:29;99454.00;;;25.70
11849;BMP180;5983;49.966;8.052;2023-07-24T10:10:58;99464.00;;;25.70
11849;BMP180;5983;49.966;8.052;2023-07-24T10:13:26;99454.00;;;25.70
11849;BMP180;5983;49.966;8.052;2023-07-24T10:15:56;99459.00;;;25.70
11849;BMP180;5983;49.966;8.052;2023-07-24T10:18:27;99465.00;;;25.70
11849;BMP180;5983;49.966;8.052;2023-07-24T10:21:01;99472.00;;;25.90
11849;BMP180;5983;49.966;8.052;2023-07-24T10:23:28;99473.00;;;26.00
11849;BMP180;5983;49.966;8.052;2023-07-24T10:25:56;99482.00;;;26.00
11849;BMP180;5983;49.966;8.052;2023-07-24T10:28:31;99468.00;;;26.00
11849;BMP180;5983;49.966;8.052;2023-07-24T10:31:01;99454.00;;;26.10
11849;BMP180;5983;49.966;8.052;2023-07-24T10:33:31;99456.00;;;26.20
11849;BMP180;5983;49.966;8.052;2023-07-24T10:36:05;99463.00;;;26.30
11849;BMP180;5983;49.966;8.052;2023-07-24T10:38:38;99455.00;;;26.40
11849;BMP180;5983;49.966;8.052;2023-07-24T10:41:06;99468.00;;;26.30
11849;BMP180;5983;49.966;8.052;2023-07-24T10:43:44;99461.00;;;26.20
11849;BMP180;5983;49.966;8.052;2023-07-24T10:46:15;99463.00;;;25.90
11849;BMP180;5983;49.966;8.052;2023-07-24T10:48:44;99467.00;;;25.70
11849;BMP180;5983;49.966;8.052;2023-07-24T10:51:11;99464.00;;;25.60
11849;BMP180;5983;49.966;8.052;2023-07-24T10:53:43;99460.00;;;25.60
11849;BMP180;5983;49.966;8.052;2023-07-24T10:56:10;99451.00;;;25.80
11849;BMP180;5983;49.966;8.052;2023-07-24T10:58:37;99442.00;;;25.80
11849;BMP180;5983;49.966;8.052;2023-07-24T11:01:05;99445.00;;;25.90
11849;BMP180;5983;49.966;8.052;2023-07-24T11:03:36;99459.00;;;25.90
11849;BMP180;5983;49.966;8.052;2023-07-24T11:06:04;99444.00;;;25.90
11849;BMP180;5983;49.966;8.052;2023-07-24T11:08:31;99460.00;;;25.90
11849;BMP180;5983;49.966;8.052;2023-07-24T11:10:59;99455.00;;;26.10
11849;BMP180;5983;49.966;8.052;2023-07-24T11:13:28;99443.00;;;26.30
11849;BMP180;5983;49.966;8.052;2023-07-24T11:15:56;99439.00;;;26.30
11849;BMP180;5983;49.966;8.052;2023-07-24T11:18:23;99441.00;;;26.50
11849;BMP180;5983;49.966;8.052;2023-07-24T11:20:55;99430.00;;;26.40
11849;BMP180;5983;49.966;8.052;2023-07-24T11:23:23;99438.00;;;26.50
11849;BMP180;5983;49.966;8.052;2023-07-24T11:25:51;99447.00;;;26.60
11849;BMP180;5983;49.966;8.052;2023-07-24T11:28:19;99421.00;;;26.70
11849;BMP180;5983;49.966;8.052;2023-07-24T11:30:46;99424.00;;;26.80
11849;BMP180;5983;49.966;8.052;2023-07-24T11:33:16;99429.00;;;27.00
11849;BMP180;5983;49.966;8.052;2023-07-24T11:35:43;99426.00;;;27.20
11849;BMP180;5983;49.966;8.052;2023-07-24T11:38:12;99420.00;;;27.60
11849;BMP180;5983;49.966;8.052;2023-07-24T11:40:41;99414.00;;;27.60
11849;BMP180;5983;49.966;8.052;2023-07-24T11:43:16;99397.00;;;27.60
11849;BMP180;5983;49.966;8.052;2023-07-24T11:45:45;99389.00;;;27.70
11849;BMP180;5983;49.966;8.052;2023-07-24T11:48:14;99397.00;;;27.70
11849;BMP180;5983;49.966;8.052;2023-07-24T11:50:43;99389.00;;;28.00
11849;BMP180;5983;49.966;8.052;2023-07-24T11:53:22;99393.00;;;28.10
11849;BMP180;5983;49.966;8.052;2023-07-24T11:55:50;99395.00;;;28.00
11849;BMP180;5983;49.966;8.052;2023-07-24T11:58:17;99398.00;;;27.80
11849;BMP180;5983;49.966;8.052;2023-07-24T12:00:46;99397.00;;;27.70
11849;BMP180;5983;49.966;8.052;2023-07-24T12:03:14;99384.00;;;27.60
11849;BMP180;5983;49.966;8.052;2023-07-24T12:05:43;99373.00;;;27.80
11849;BMP180;5983;49.966;8.052;2023-07-24T12:08:10;99366.00;;;28.00
11849;BMP180;5983;49.966;8.052;2023-07-24T12:10:41;99365.00;;;28.30
11849;BMP180;5983;49.966;8.052;2023-07-24T12:13:09;99364.00;;;28.40
11849;BMP180;5983;49.966;8.052;2023-07-24T12:15:36;99357.00;;;28.50
11849;BMP180;5983;49.966;8.052;2023-07-24T12:18:05;99362.00;;;28.40
11849;BMP180;5983;49.966;8.052;2023-07-24T12:20:32;99364.00;;;28.40
11849;BMP180;5983;49.966;8.052;2023-07-24T12:22:59;99373.00;;;28.40
11849;BMP180;5983;49.966;8.052;2023-07-24T12:25:26;99358.00;;;28.20
11849;BMP180;5983;49.966;8.052;2023-07-24T12:27:55;99369.00;;;28.00
11849;BMP180;5983;49.966;8.052;2023-07-24T12:30:22;99354.00;;;28.00
11849;BMP180;5983;49.966;8.052;2023-07-24T12:32:49;99343.00;;;27.80
11849;BMP180;5983;49.966;8.052;2023-07-24T12:35:16;99366.00;;;27.70
11849;BMP180;5983;49.966;8.052;2023-07-24T12:37:43;99353.00;;;27.60
11849;BMP180;5983;49.966;8.052;2023-07-24T12:40:11;99342.00;;;27.40
11849;BMP180;5983;49.966;8.052;2023-07-24T12:42:38;99353.00;;;27.40
11849;BMP180;5983;49.966;8.052;2023-07-24T12:45:07;99353.00;;;27.20
11849;BMP180;5983;49.966;8.052;2023-07-24T12:47:34;99361.00;;;27.00
11849;BMP180;5983;49.966;8.052;2023-07-24T12:50:01;99354.00;;;26.80
11849;BMP180;5983;49.966;8.052;2023-07-24T12:52:29;99339.00;;;27.00
11849;BMP180;5983;49.966;8.052;2023-07-24T12:54:56;99326.00;;;27.30
11849;BMP180;5983;49.966;8.052;2023-07-24T12:57:22;99327.00;;;27.50
11849;BMP180;5983;49.966;8.052;2023-07-24T12:59:51;99328.00;;;27.60
11849;BMP180;5983;49.966;8.052;2023-07-24T13:02:19;99319.00;;;27.60
11849;BMP180;5983;49.966;8.052;2023-07-24T13:04:46;99330.00;;;27.70
11849;BMP180;5983;49.966;8.052;2023-07-24T13:07:13;99333.00;;;27.90
11849;BMP180;5983;49.966;8.052;2023-07-24T13:09:39;99334.00;;;28.10
11849;BMP180;5983;49.966;8.052;2023-07-24T13:12:08;99327.00;;;28.20
11849;BMP180;5983;49.966;8.052;2023-07-24T13:14:34;99327.00;;;28.10
11849;BMP180;5983;49.966;8.052;2023-07-24T13:17:01;99323.00;;;28.10
11849;BMP180;5983;49.966;8.052;2023-07-24T13:19:29;99324.00;;;28.10
11849;BMP180;5983;49.966;8.052;2023-07-24T13:21:56;99330.00;;;28.00
11849;BMP180;5983;49.966;8.052;2023-07-24T13:24:23;99325.00;;;27.70
11849;BMP180;5983;49.966;8.052;2023-07-24T13:26:50;99314.00;;;27.50
11849;BMP180;5983;49.966;8.052;2023-07-24T13:29:17;99330.00;;;27.70
11849;BMP180;5983;49.966;8.052;2023-07-24T13:31:43;99311.00;;;27.70
11849;BMP180;5983;49.966;8.052;2023-07-24T13:34:11;99317.00;;;27.60
11849;BMP180;5983;49.966;8.052;2023-07-24T13:36:39;99312.00;;;27.40
11849;BMP180;5983;49.966;8.052;2023-07-24T13:39:05;99307.00;;;27.20
11849;BMP180;5983;49.966;8.052;2023-07-24T13:41:32;99297.00;;;27.00
11849;BMP180;5983;49.966;8.052;2023-07-24T13:43:59;99289.00;;;26.90
11849;BMP180;5983;49.966;8.052;2023-07-24T13:46:25;99276.00;;;26.80
11849;BMP180;5983;49.966;8.052;2023-07-24T13:48:52;99280.00;;;26.70
11849;BMP180;5983;49.966;8.052;2023-07-24T13:51:19;99273.00;;;26.80
11849;BMP180;5983;49.966;8.052;2023-07-24T13:53:47;99275.00;;;26.50
11849;BMP180;5983;49.966;8.052;2023-07-24T13:56:17;99269.00;;;26.30
11849;BMP180;5983;49.966;8.052;2023-07-24T13:58:43;99276.00;;;26.30
11849;BMP180;5983;49.966;8.052;2023-07-24T14:01:10;99272.00;;;26.20
11849;BMP180;5983;49.966;8.052;2023-07-24T14:03:37;99277.00;;;26.00
11849;BMP180;5983;49.966;8.052;2023-07-24T14:06:04;99263.00;;;25.80
11849;BMP180;5983;49.966;8.052;2023-07-24T14:08:30;99263.00;;;25.80
11849;BMP180;5983;49.966;8.052;2023-07-24T14:10:58;99253.00;;;25.90
11849;BMP180;5983;49.966;8.052;2023-07-24T14:13:25;99253.00;;;25.90
11849;BMP180;5983;49.966;8.052;2023-07-24T14:15:52;99251.00;;;25.90
11849;BMP180;5983;49.966;8.052;2023-07-24T14:18:19;99256.00;;;25.90
11849;BMP180;5983;49.966;8.052;2023-07-24T14:20:45;99259.00;;;25.90
11849;BMP180;5983;49.966;8.052;2023-07-24T14:23:12;99240.00;;;25.90
11849;BMP180;5983;49.966;8.052;2023-07-24T14:25:39;99255.00;;;25.90